createdAt,value
2023-04-16T00:02:34.709Z,12.02
2023-04-16T00:07:37.220Z,9.45
2023-04-16T00:12:39.717Z,12.63
2023-04-16T00:17:42.215Z,12.65
2023-04-16T00:22:44.675Z,13.73
2023-04-16T00:27:47.092Z,12.80
2023-04-16T00:32:49.503Z,14.32
2023-04-16T00:37:51.937Z,11.50
2023-04-16T00:42:54.382Z,15.20
2023-04-16T00:47:59.210Z,11.05
2023-04-16T00:53:03.027Z,13.82
2023-04-16T00:58:05.582Z,15.48
2023-04-16T01:03:08.233Z,15.70
2023-04-16T01:08:18.709Z,18.92
2023-04-16T01:13:21.351Z,12.02
2023-04-16T01:18:24.358Z,10.25
2023-04-16T01:23:26.855Z,12.68
2023-04-16T01:28:29.336Z,12.98
2023-04-16T01:33:32.002Z,12.63
2023-04-16T01:38:34.617Z,15.10
2023-04-16T01:43:39.678Z,14.75
2023-04-16T01:53:45.669Z,12.30
2023-04-16T01:58:48.333Z,12.85
2023-04-16T02:03:53.608Z,15.85
2023-04-16T02:08:56.082Z,13.20
2023-04-16T02:13:58.420Z,10.15
2023-04-16T02:19:02.319Z,10.27
2023-04-16T02:24:08.463Z,12.55
2023-04-16T02:29:11.608Z,11.70
2023-04-16T02:34:19.006Z,8.93
2023-04-16T02:39:21.507Z,7.22
2023-04-16T02:44:23.837Z,6.72
2023-04-16T02:49:26.201Z,10.45
2023-04-16T02:54:28.577Z,7.95
2023-04-16T02:59:31.049Z,6.30
2023-04-16T03:04:33.816Z,6.55
2023-04-16T03:09:36.193Z,5.43
2023-04-16T03:14:38.569Z,5.70
2023-04-16T03:19:40.929Z,7.35
2023-04-16T03:24:43.299Z,5.30
2023-04-16T03:29:45.726Z,8.35
2023-04-16T03:34:48.566Z,5.47
2023-04-16T03:39:51.109Z,4.07
2023-04-16T03:44:57.661Z,6.32
2023-04-16T03:50:00.080Z,6.28
2023-04-16T03:55:04.434Z,6.40
2023-04-16T04:00:09.100Z,6.88
2023-04-16T04:05:26.294Z,6.22
2023-04-16T04:10:28.785Z,4.15
2023-04-16T04:15:31.794Z,5.63
2023-04-16T04:20:34.451Z,7.68
2023-04-16T04:25:39.540Z,7.68
2023-04-16T04:30:42.690Z,8.02
2023-04-16T04:35:45.760Z,7.97
2023-04-16T04:40:49.924Z,6.75
2023-04-16T04:45:54.517Z,5.10
2023-04-16T04:50:57.111Z,6.03
2023-04-16T04:56:09.285Z,5.63
2023-04-16T05:01:15.191Z,6.72
2023-04-16T05:06:17.847Z,5.38
2023-04-16T05:11:20.190Z,5.47
2023-04-16T05:16:22.598Z,4.07
2023-04-16T05:21:26.721Z,6.05
2023-04-16T05:26:29.131Z,5.60
2023-04-16T05:31:31.560Z,5.90
2023-04-16T05:36:34.021Z,6.47
2023-04-16T05:41:36.486Z,5.13
2023-04-16T05:46:39.012Z,5.68
2023-04-16T05:51:41.601Z,7.13
2023-04-16T05:56:44.004Z,6.57
2023-04-16T06:01:46.706Z,6.43
2023-04-16T06:06:49.055Z,11.45
2023-04-16T06:11:51.418Z,7.05
2023-04-16T06:16:53.932Z,5.93
2023-04-16T06:21:57.179Z,6.43
2023-04-16T06:26:59.592Z,7.28
2023-04-16T06:32:02.372Z,4.88
2023-04-16T06:37:05.004Z,3.83
2023-04-16T06:42:07.451Z,4.15
2023-04-16T06:47:10.149Z,4.78
2023-04-16T06:52:12.968Z,6.88
2023-04-16T06:57:15.352Z,6.57
2023-04-16T07:02:17.862Z,4.45
2023-04-16T07:07:20.521Z,6.95
2023-04-16T07:12:23.221Z,4.55
2023-04-16T07:17:25.979Z,4.22
2023-04-16T07:22:28.418Z,4.38
2023-04-16T07:27:30.778Z,6.82
2023-04-16T07:32:33.360Z,5.45
2023-04-16T07:37:35.685Z,5.90
2023-04-16T07:42:38.129Z,8.00
2023-04-16T07:47:40.736Z,5.68
2023-04-16T07:53:01.564Z,8.13
2023-04-16T07:58:04.094Z,6.80
2023-04-16T08:03:06.715Z,6.70
2023-04-16T08:08:09.332Z,3.38
2023-04-16T08:13:11.780Z,4.45
2023-04-16T08:18:15.918Z,5.85
2023-04-16T08:23:18.401Z,2.97
2023-04-16T08:28:20.834Z,2.97
2023-04-16T08:33:23.284Z,4.15
2023-04-16T08:38:26.676Z,4.88
2023-04-16T08:43:34.309Z,3.42
2023-04-16T08:48:37.957Z,2.97
2023-04-16T08:53:52.320Z,4.70
2023-04-16T08:58:55.681Z,4.45
2023-04-16T09:03:59.655Z,5.32
2023-04-16T09:09:04.939Z,4.85
2023-04-16T09:14:11.426Z,4.70
2023-04-16T09:19:15.095Z,6.07
2023-04-16T09:24:18.056Z,5.05
2023-04-16T09:29:36.522Z,3.20
2023-04-16T09:34:58.813Z,3.65
2023-04-16T09:40:04.162Z,3.75
2023-04-16T09:45:09.665Z,4.22
2023-04-16T09:50:20.609Z,4.13
2023-04-16T09:55:24.144Z,11.60
2023-04-16T10:00:26.683Z,10.02
2023-04-16T10:05:29.088Z,5.72
2023-04-16T10:10:32.709Z,7.78
2023-04-16T10:15:35.151Z,9.07
2023-04-16T10:20:37.834Z,7.45
2023-04-16T10:25:41.600Z,7.50
2023-04-16T10:30:55.763Z,6.00
2023-04-16T10:36:14.501Z,10.90
2023-04-16T10:41:17.059Z,13.57
2023-04-16T10:46:23.550Z,7.57
2023-04-16T10:51:36.765Z,5.07
2023-04-16T10:56:39.113Z,8.50
2023-04-16T11:01:45.746Z,11.48
2023-04-16T11:07:04.813Z,4.82
2023-04-16T11:12:08.642Z,6.60
2023-04-16T11:22:17.580Z,5.35
2023-04-16T11:27:20.089Z,7.25
2023-04-16T11:32:23.076Z,5.72
2023-04-16T11:37:55.932Z,7.63
2023-04-16T11:43:03.219Z,4.70
2023-04-16T11:48:05.702Z,4.53
2023-04-16T11:53:08.031Z,4.20
2023-04-16T11:58:16.648Z,5.45
2023-04-16T12:03:37.909Z,6.47
2023-04-16T12:08:40.633Z,4.20
2023-04-16T12:13:43.053Z,4.60
2023-04-16T12:19:03.115Z,4.72
2023-04-16T12:24:07.037Z,3.38
2023-04-16T12:29:26.226Z,4.05
2023-04-16T12:34:48.065Z,3.20
2023-04-16T12:39:51.208Z,2.63
2023-04-16T12:44:53.666Z,4.25
2023-04-16T12:49:58.106Z,4.35
2023-04-16T13:00:06.919Z,3.97
2023-04-16T13:05:09.661Z,3.28
2023-04-16T13:10:12.651Z,2.75
2023-04-16T13:15:15.077Z,3.80
2023-04-16T13:20:17.620Z,3.75
2023-04-16T13:25:20.047Z,4.15
2023-04-16T13:30:22.460Z,4.47
2023-04-16T13:35:24.890Z,4.82
2023-04-16T13:40:27.402Z,3.90
2023-04-16T13:45:29.861Z,3.70
2023-04-16T13:50:32.361Z,3.45
2023-04-16T13:55:34.758Z,9.32
2023-04-16T14:00:38.004Z,6.43
2023-04-16T14:05:41.574Z,4.13
2023-04-16T14:10:44.045Z,5.60
2023-04-16T14:15:46.830Z,2.90
2023-04-16T14:20:49.323Z,4.00
2023-04-16T14:25:51.683Z,3.78
2023-04-16T14:30:54.060Z,5.57
2023-04-16T14:35:56.402Z,8.07
2023-04-16T14:41:00.539Z,11.63
2023-04-16T14:46:05.169Z,8.60
2023-04-16T14:56:11.529Z,5.75
2023-04-16T15:01:15.126Z,5.22
2023-04-16T15:06:17.557Z,5.07
2023-04-16T15:11:20.012Z,5.25
2023-04-16T15:16:22.574Z,5.38
2023-04-16T15:21:26.784Z,8.40
2023-04-16T15:26:30.357Z,8.82
2023-04-16T15:31:32.772Z,8.27
2023-04-16T15:36:35.148Z,6.68
2023-04-16T15:41:47.206Z,6.97
2023-04-16T15:47:00.438Z,7.20
2023-04-16T15:52:03.455Z,9.82
2023-04-16T15:57:05.825Z,8.10
2023-04-16T16:02:08.389Z,9.13
2023-04-16T16:07:11.468Z,7.07
2023-04-16T16:12:14.477Z,10.35
2023-04-16T16:17:17.015Z,8.30
2023-04-16T16:22:20.854Z,9.80
2023-04-16T16:27:23.504Z,8.05
2023-04-16T16:32:25.963Z,11.35
2023-04-16T16:37:29.450Z,7.65
2023-04-16T16:42:32.046Z,10.45
2023-04-16T16:47:34.493Z,11.10
2023-04-16T16:52:36.837Z,12.50
2023-04-16T16:57:39.629Z,8.30
2023-04-16T17:02:43.553Z,10.10
2023-04-16T17:07:46.586Z,8.80
2023-04-16T17:12:49.848Z,7.75
2023-04-16T17:17:52.270Z,5.32
2023-04-16T17:22:54.713Z,10.75
2023-04-16T17:27:57.174Z,7.78
2023-04-16T17:32:59.656Z,6.97
2023-04-16T17:38:02.050Z,6.68
2023-04-16T17:43:05.178Z,4.90
2023-04-16T17:48:07.688Z,7.07
2023-04-16T17:53:10.148Z,9.52
2023-04-16T17:58:12.736Z,6.32
2023-04-16T18:03:15.389Z,10.77
2023-04-16T18:08:18.051Z,9.75
2023-04-16T18:13:20.442Z,11.80
2023-04-16T18:18:22.917Z,10.90
2023-04-16T18:23:25.750Z,7.00
2023-04-16T18:28:46.687Z,5.35
2023-04-16T18:33:57.618Z,8.02
2023-04-16T18:39:02.393Z,6.22
2023-04-16T18:44:05.218Z,11.27
2023-04-16T18:49:07.766Z,10.45
2023-04-16T18:54:10.186Z,7.95
2023-04-16T18:59:12.834Z,7.68
2023-04-16T19:04:15.356Z,7.05
2023-04-16T19:09:36.334Z,6.10
2023-04-16T19:14:38.748Z,5.57
2023-04-16T19:19:41.148Z,7.68
2023-04-16T19:24:43.533Z,5.43
2023-04-16T19:29:47.009Z,10.15
2023-04-16T19:34:49.393Z,9.05
2023-04-16T19:39:51.791Z,7.22
2023-04-16T19:44:54.490Z,5.22
2023-04-16T19:49:56.935Z,7.93
2023-04-16T19:54:59.463Z,13.23
2023-04-16T20:00:21.208Z,14.18
2023-04-16T20:05:26.640Z,10.40
2023-04-16T20:10:29.636Z,13.60
2023-04-16T20:15:32.018Z,13.32
2023-04-16T20:20:36.732Z,12.45
2023-04-16T20:25:42.938Z,10.50
2023-04-16T20:30:45.354Z,13.70
2023-04-16T20:35:47.807Z,11.95
2023-04-16T20:40:58.334Z,10.48
2023-04-16T20:46:03.398Z,14.30
2023-04-16T20:51:07.922Z,13.07
2023-04-16T20:56:12.421Z,13.70
2023-04-16T21:01:14.873Z,16.23
2023-04-16T21:06:18.107Z,16.60
2023-04-16T21:11:21.081Z,15.75
2023-04-16T21:16:23.561Z,13.85
2023-04-16T21:21:27.694Z,43.45
2023-04-16T21:26:30.119Z,53.58
2023-04-16T21:31:32.695Z,29.75
2023-04-16T21:36:35.389Z,19.95
2023-04-16T21:41:37.882Z,22.80
2023-04-16T21:46:40.368Z,27.48
2023-04-16T21:51:43.324Z,26.20
2023-04-16T21:56:45.747Z,24.60
2023-04-16T22:01:48.109Z,25.38
2023-04-16T22:06:56.103Z,23.13
2023-04-16T22:11:59.264Z,23.40
2023-04-16T22:17:02.170Z,17.17
2023-04-16T22:22:04.801Z,24.23
2023-04-16T22:27:07.134Z,22.15
2023-04-16T22:32:09.564Z,18.98
2023-04-16T22:37:12.001Z,13.45
2023-04-16T22:42:14.288Z,17.92
2023-04-16T22:47:16.748Z,27.20
2023-04-16T22:52:19.207Z,21.95
2023-04-16T22:57:25.111Z,20.45
2023-04-16T23:02:27.636Z,26.50
2023-04-16T23:07:30.133Z,24.52
2023-04-16T23:12:32.613Z,29.13
2023-04-16T23:17:35.451Z,23.02
2023-04-16T23:22:38.376Z,28.30
2023-04-16T23:27:40.964Z,27.55
2023-04-16T23:32:43.248Z,29.33
2023-04-16T23:37:45.835Z,28.65
2023-04-16T23:42:48.209Z,24.88
2023-04-16T23:47:51.967Z,32.13
2023-04-16T23:52:54.412Z,28.70
2023-04-16T23:57:56.788Z,31.35
